sensor_id;sensor_type;location;lat;lon;timestamp;temperature;humidity
61400;DHT22;47269;48.182;-1.946;2023-09-08T06:00:58;20.40;99.90
61400;DHT22;47269;48.182;-1.946;2023-09-08T06:03:24;20.20;99.90
61400;DHT22;47269;48.182;-1.946;2023-09-08T06:05:50;20.10;99.90
61400;DHT22;47269;48.182;-1.946;2023-09-08T06:08:15;19.80;99.90
61400;DHT22;47269;48.182;-1.946;2023-09-08T06:10:41;19.90;99.90
61400;DHT22;47269;48.182;-1.946;2023-09-08T06:13:06;20.10;99.90
61400;DHT22;47269;48.182;-1.946;2023-09-08T06:15:33;20.10;99.90
61400;DHT22;47269;48.182;-1.946;2023-09-08T06:17:58;20.10;99.90
61400;DHT22;47269;48.182;-1.946;2023-09-08T06:20:27;20.20;99.90
61400;DHT22;47269;48.182;-1.946;2023-09-08T06:22:53;20.30;99.90
61400;DHT22;47269;48.182;-1.946;2023-09-08T06:25:18;20.30;99.90
61400;DHT22;47269;48.182;-1.946;2023-09-08T06:27:44;20.50;99.90
61400;DHT22;47269;48.182;-1.946;2023-09-08T06:30:10;20.40;99.90
61400;DHT22;47269;48.182;-1.946;2023-09-08T06:32:39;20.40;99.90
61400;DHT22;47269;48.182;-1.946;2023-09-08T06:35:04;20.50;99.90
61400;DHT22;47269;48.182;-1.946;2023-09-08T06:37:35;20.70;99.90
61400;DHT22;47269;48.182;-1.946;2023-09-08T06:40:01;20.70;99.90
61400;DHT22;47269;48.182;-1.946;2023-09-08T06:42:27;20.70;99.90
61400;DHT22;47269;48.182;-1.946;2023-09-08T06:44:52;20.80;99.90
61400;DHT22;47269;48.182;-1.946;2023-09-08T06:47:18;20.80;99.90
61400;DHT22;47269;48.182;-1.946;2023-09-08T06:49:44;20.90;99.90
61400;DHT22;47269;48.182;-1.946;2023-09-08T06:52:10;21.00;99.90
61400;DHT22;47269;48.182;-1.946;2023-09-08T06:54:36;21.10;99.90
61400;DHT22;47269;48.182;-1.946;2023-09-08T06:57:02;21.20;99.90
61400;DHT22;47269;48.182;-1.946;2023-09-08T06:59:27;21.40;99.90
61400;DHT22;47269;48.182;-1.946;2023-09-08T07:01:53;21.50;99.90
61400;DHT22;47269;48.182;-1.946;2023-09-08T07:04:19;21.70;99.90
61400;DHT22;47269;48.182;-1.946;2023-09-08T07:06:44;21.80;99.90
61400;DHT22;47269;48.182;-1.946;2023-09-08T07:09:12;21.90;99.90
61400;DHT22;47269;48.182;-1.946;2023-09-08T07:11:37;22.00;99.90
61400;DHT22;47269;48.182;-1.946;2023-09-08T07:14:03;22.10;99.90
61400;DHT22;47269;48.182;-1.946;2023-09-08T07:16:29;22.30;99.90
61400;DHT22;47269;48.182;-1.946;2023-09-08T07:18:54;22.50;99.90
61400;DHT22;47269;48.182;-1.946;2023-09-08T07:21:20;22.60;99.90
61400;DHT22;47269;48.182;-1.946;2023-09-08T07:23:46;22.60;99.90
61400;DHT22;47269;48.182;-1.946;2023-09-08T07:26:11;22.80;99.90
61400;DHT22;47269;48.182;-1.946;2023-09-08T07:28:37;22.90;99.90
61400;DHT22;47269;48.182;-1.946;2023-09-08T07:31:04;22.80;99.90
61400;DHT22;47269;48.182;-1.946;2023-09-08T07:33:30;23.10;99.90
61400;DHT22;47269;48.182;-1.946;2023-09-08T07:35:56;23.20;99.90
61400;DHT22;47269;48.182;-1.946;2023-09-08T07:38:22;23.10;99.90
61400;DHT22;47269;48.182;-1.946;2023-09-08T07:40:48;23.10;99.90
61400;DHT22;47269;48.182;-1.946;2023-09-08T07:43:13;23.00;99.90
61400;DHT22;47269;48.182;-1.946;2023-09-08T07:45:39;23.20;99.90
61400;DHT22;47269;48.182;-1.946;2023-09-08T07:48:06;23.20;99.90
61400;DHT22;47269;48.182;-1.946;2023-09-08T07:50:32;23.20;99.90
61400;DHT22;47269;48.182;-1.946;2023-09-08T07:52:57;23.20;99.90
61400;DHT22;47269;48.182;-1.946;2023-09-08T07:55:24;23.30;99.90
61400;DHT22;47269;48.182;-1.946;2023-09-08T07:57:53;23.20;99.90
61400;DHT22;47269;48.182;-1.946;2023-09-08T08:00:19;23.10;99.90
61400;DHT22;47269;48.182;-1.946;2023-09-08T08:02:50;23.20;99.90
61400;DHT22;47269;48.182;-1.946;2023-09-08T08:05:16;23.20;99.90
61400;DHT22;47269;48.182;-1.946;2023-09-08T08:07:42;23.30;99.90
61400;DHT22;47269;48.182;-1.946;2023-09-08T08:10:09;23.40;99.90
61400;DHT22;47269;48.182;-1.946;2023-09-08T08:12:36;23.50;99.90
61400;DHT22;47269;48.182;-1.946;2023-09-08T08:15:02;23.50;99.90
61400;DHT22;47269;48.182;-1.946;2023-09-08T08:17:28;23.60;99.90
61400;DHT22;47269;48.182;-1.946;2023-09-08T08:19:55;23.70;99.90
61400;DHT22;47269;48.182;-1.946;2023-09-08T08:22:21;23.60;99.90
61400;DHT22;47269;48.182;-1.946;2023-09-08T08:24:47;23.60;99.90
61400;DHT22;47269;48.182;-1.946;2023-09-08T08:27:13;23.60;99.90
61400;DHT22;47269;48.182;-1.946;2023-09-08T08:29:39;23.70;99.90
61400;DHT22;47269;48.182;-1.946;2023-09-08T08:32:05;23.80;99.90
61400;DHT22;47269;48.182;-1.946;2023-09-08T08:34:31;23.90;99.90
61400;DHT22;47269;48.182;-1.946;2023-09-08T08:36:57;24.10;99.90
61400;DHT22;47269;48.182;-1.946;2023-09-08T08:39:23;24.00;99.90
61400;DHT22;47269;48.182;-1.946;2023-09-08T08:41:48;24.00;99.90
61400;DHT22;47269;48.182;-1.946;2023-09-08T08:44:15;24.10;99.90
61400;DHT22;47269;48.182;-1.946;2023-09-08T08:46:44;24.20;99.90
61400;DHT22;47269;48.182;-1.946;2023-09-08T08:49:11;24.20;99.90
61400;DHT22;47269;48.182;-1.946;2023-09-08T08:51:38;24.20;99.90
61400;DHT22;47269;48.182;-1.946;2023-09-08T08:54:05;24.20;99.90
61400;DHT22;47269;48.182;-1.946;2023-09-08T08:56:32;24.30;99.90
61400;DHT22;47269;48.182;-1.946;2023-09-08T08:58:58;24.60;99.90
61400;DHT22;47269;48.182;-1.946;2023-09-08T09:01:26;24.40;99.90
61400;DHT22;47269;48.182;-1.946;2023-09-08T09:03:52;24.50;99.90
61400;DHT22;47269;48.182;-1.946;2023-09-08T09:06:18;24.60;99.90
61400;DHT22;47269;48.182;-1.946;2023-09-08T09:08:44;24.70;99.90
61400;DHT22;47269;48.182;-1.946;2023-09-08T09:11:11;24.90;99.90
61400;DHT22;47269;48.182;-1.946;2023-09-08T09:13:37;24.70;99.90
61400;DHT22;47269;48.182;-1.946;2023-09-08T09:16:03;24.60;99.90
61400;DHT22;47269;48.182;-1.946;2023-09-08T09:18:32;24.90;99.90
61400;DHT22;47269;48.182;-1.946;2023-09-08T09:21:01;25.30;99.90
61400;DHT22;47269;48.182;-1.946;2023-09-08T09:23:31;24.90;99.90
61400;DHT22;47269;48.182;-1.946;2023-09-08T09:25:58;25.00;99.90
61400;DHT22;47269;48.182;-1.946;2023-09-08T09:28:24;25.30;99.90
61400;DHT22;47269;48.182;-1.946;2023-09-08T09:30:52;25.50;99.90
61400;DHT22;47269;48.182;-1.946;2023-09-08T09:33:20;26.00;99.90
61400;DHT22;47269;48.182;-1.946;2023-09-08T09:35:51;25.50;99.90
61400;DHT22;47269;48.182;-1.946;2023-09-08T09:38:18;25.10;99.90
61400;DHT22;47269;48.182;-1.946;2023-09-08T09:40:45;24.90;99.90
61400;DHT22;47269;48.182;-1.946;2023-09-08T09:43:11;24.90;99.90
61400;DHT22;47269;48.182;-1.946;2023-09-08T09:45:38;25.50;99.90
61400;DHT22;47269;48.182;-1.946;2023-09-08T09:48:05;25.60;99.90
61400;DHT22;47269;48.182;-1.946;2023-09-08T09:50:33;25.70;99.90
61400;DHT22;47269;48.182;-1.946;2023-09-08T09:53:01;26.00;99.90
61400;DHT22;47269;48.182;-1.946;2023-09-08T09:55:28;26.30;99.90
61400;DHT22;47269;48.182;-1.946;2023-09-08T09:57:58;25.70;99.90
61400;DHT22;47269;48.182;-1.946;2023-09-08T10:00:26;25.60;99.90
61400;DHT22;47269;48.182;-1.946;2023-09-08T10:02:54;25.50;99.90
61400;DHT22;47269;48.182;-1.946;2023-09-08T10:05:21;25.60;99.90
61400;DHT22;47269;48.182;-1.946;2023-09-08T10:07:50;25.80;99.90
61400;DHT22;47269;48.182;-1.946;2023-09-08T10:10:16;26.30;99.90
61400;DHT22;47269;48.182;-1.946;2023-09-08T10:12:43;26.60;99.90
61400;DHT22;47269;48.182;-1.946;2023-09-08T10:15:11;26.50;99.90
61400;DHT22;47269;48.182;-1.946;2023-09-08T10:17:38;26.90;99.90
61400;DHT22;47269;48.182;-1.946;2023-09-08T10:20:08;27.90;1.00
61400;DHT22;47269;48.182;-1.946;2023-09-08T10:22:38;28.60;99.90
61400;DHT22;47269;48.182;-1.946;2023-09-08T10:25:09;29.80;59.50
61400;DHT22;47269;48.182;-1.946;2023-09-08T10:27:35;31.70;99.90
61400;DHT22;47269;48.182;-1.946;2023-09-08T10:30:05;31.80;99.90
61400;DHT22;47269;48.182;-1.946;2023-09-08T10:32:35;32.20;99.90
61400;DHT22;47269;48.182;-1.946;2023-09-08T10:35:02;32.90;99.90
61400;DHT22;47269;48.182;-1.946;2023-09-08T10:37:28;32.80;99.90
61400;DHT22;47269;48.182;-1.946;2023-09-08T10:40:24;30.40;99.90
61400;DHT22;47269;48.182;-1.946;2023-09-08T10:43:12;28.30;1.00
61400;DHT22;47269;48.182;-1.946;2023-09-08T10:45:40;30.10;1.00
61400;DHT22;47269;48.182;-1.946;2023-09-08T10:48:07;30.80;99.90
61400;DHT22;47269;48.182;-1.946;2023-09-08T10:50:34;30.60;99.90
61400;DHT22;47269;48.182;-1.946;2023-09-08T10:56:02;29.90;99.90
61400;DHT22;47269;48.182;-1.946;2023-09-08T10:58:37;29.70;99.90
61400;DHT22;47269;48.182;-1.946;2023-09-08T11:01:05;30.10;99.90
61400;DHT22;47269;48.182;-1.946;2023-09-08T11:06:03;29.50;99.90
61400;DHT22;47269;48.182;-1.946;2023-09-08T11:08:29;32.40;99.90
61400;DHT22;47269;48.182;-1.946;2023-09-08T11:10:55;34.40;99.90
61400;DHT22;47269;48.182;-1.946;2023-09-08T11:13:21;33.20;99.90
61400;DHT22;47269;48.182;-1.946;2023-09-08T11:15:47;32.40;99.90
61400;DHT22;47269;48.182;-1.946;2023-09-08T11:18:13;30.30;99.90
61400;DHT22;47269;48.182;-1.946;2023-09-08T11:20:38;31.30;99.90
61400;DHT22;47269;48.182;-1.946;2023-09-08T11:23:05;31.50;99.90
61400;DHT22;47269;48.182;-1.946;2023-09-08T11:25:34;31.30;99.90
61400;DHT22;47269;48.182;-1.946;2023-09-08T11:28:00;31.10;99.90
61400;DHT22;47269;48.182;-1.946;2023-09-08T11:30:26;31.30;99.90
61400;DHT22;47269;48.182;-1.946;2023-09-08T11:32:52;31.30;99.90
61400;DHT22;47269;48.182;-1.946;2023-09-08T11:35:18;31.50;99.90
61400;DHT22;47269;48.182;-1.946;2023-09-08T11:37:46;31.70;99.90
61400;DHT22;47269;48.182;-1.946;2023-09-08T11:40:12;31.70;99.90
61400;DHT22;47269;48.182;-1.946;2023-09-08T11:42:42;32.30;99.90
61400;DHT22;47269;48.182;-1.946;2023-09-08T11:45:15;32.10;99.90
61400;DHT22;47269;48.182;-1.946;2023-09-08T11:47:43;31.30;99.90
61400;DHT22;47269;48.182;-1.946;2023-09-08T11:50:12;32.00;99.90
61400;DHT22;47269;48.182;-1.946;2023-09-08T11:52:50;32.80;99.90
61400;DHT22;47269;48.182;-1.946;2023-09-08T11:55:17;32.40;99.90
61400;DHT22;47269;48.182;-1.946;2023-09-08T11:57:45;30.20;99.90
61400;DHT22;47269;48.182;-1.946;2023-09-08T12:00:12;30.20;99.90
61400;DHT22;47269;48.182;-1.946;2023-09-08T12:02:43;29.60;99.90
61400;DHT22;47269;48.182;-1.946;2023-09-08T12:05:13;29.90;99.90
61400;DHT22;47269;48.182;-1.946;2023-09-08T12:07:39;30.20;99.90
61400;DHT22;47269;48.182;-1.946;2023-09-08T12:10:10;30.30;99.90
61400;DHT22;47269;48.182;-1.946;2023-09-08T12:12:45;29.50;99.90
61400;DHT22;47269;48.182;-1.946;2023-09-08T12:15:11;29.40;1.00
61400;DHT22;47269;48.182;-1.946;2023-09-08T12:17:47;29.20;1.00
61400;DHT22;47269;48.182;-1.946;2023-09-08T12:20:16;30.30;99.90
61400;DHT22;47269;48.182;-1.946;2023-09-08T12:22:51;30.50;99.90
61400;DHT22;47269;48.182;-1.946;2023-09-08T12:25:17;31.20;99.90
61400;DHT22;47269;48.182;-1.946;2023-09-08T12:27:45;32.30;99.90
61400;DHT22;47269;48.182;-1.946;2023-09-08T12:30:22;30.10;99.90
61400;DHT22;47269;48.182;-1.946;2023-09-08T12:32:56;30.00;99.90
61400;DHT22;47269;48.182;-1.946;2023-09-08T12:35:23;30.20;99.90
61400;DHT22;47269;48.182;-1.946;2023-09-08T12:37:59;30.40;99.90
61400;DHT22;47269;48.182;-1.946;2023-09-08T12:40:26;31.30;99.90
61400;DHT22;47269;48.182;-1.946;2023-09-08T12:42:52;31.30;99.90
61400;DHT22;47269;48.182;-1.946;2023-09-08T12:45:20;31.70;99.90
61400;DHT22;47269;48.182;-1.946;2023-09-08T12:47:46;30.50;99.90
61400;DHT22;47269;48.182;-1.946;2023-09-08T12:50:11;32.70;99.90
61400;DHT22;47269;48.182;-1.946;2023-09-08T12:52:39;32.90;99.90
61400;DHT22;47269;48.182;-1.946;2023-09-08T12:55:04;33.00;99.90
61400;DHT22;47269;48.182;-1.946;2023-09-08T12:57:30;34.10;99.90
61400;DHT22;47269;48.182;-1.946;2023-09-08T12:59:56;31.10;99.90
61400;DHT22;47269;48.182;-1.946;2023-09-08T13:02:22;29.40;99.90
61400;DHT22;47269;48.182;-1.946;2023-09-08T13:04:47;30.00;99.90
61400;DHT22;47269;48.182;-1.946;2023-09-08T13:07:17;31.20;99.90
61400;DHT22;47269;48.182;-1.946;2023-09-08T13:09:43;30.20;99.90
61400;DHT22;47269;48.182;-1.946;2023-09-08T13:12:09;29.40;99.90
61400;DHT22;47269;48.182;-1.946;2023-09-08T13:14:36;31.70;99.90
61400;DHT22;47269;48.182;-1.946;2023-09-08T13:17:01;31.70;99.90
61400;DHT22;47269;48.182;-1.946;2023-09-08T13:19:27;31.50;99.90
61400;DHT22;47269;48.182;-1.946;2023-09-08T13:21:54;31.50;99.90
61400;DHT22;47269;48.182;-1.946;2023-09-08T13:24:20;31.00;99.90
61400;DHT22;47269;48.182;-1.946;2023-09-08T13:26:47;30.90;99.90
61400;DHT22;47269;48.182;-1.946;2023-09-08T13:29:14;31.20;99.90
61400;DHT22;47269;48.182;-1.946;2023-09-08T13:31:39;31.10;99.90
61400;DHT22;47269;48.182;-1.946;2023-09-08T13:34:05;30.40;99.90
61400;DHT22;47269;48.182;-1.946;2023-09-08T13:36:31;31.70;99.90
61400;DHT22;47269;48.182;-1.946;2023-09-08T13:38:56;31.70;99.90
61400;DHT22;47269;48.182;-1.946;2023-09-08T13:41:24;31.00;99.90
61400;DHT22;47269;48.182;-1.946;2023-09-08T13:43:49;30.80;99.90
61400;DHT22;47269;48.182;-1.946;2023-09-08T13:46:15;30.90;99.90
61400;DHT22;47269;48.182;-1.946;2023-09-08T13:48:41;30.90;99.90
61400;DHT22;47269;48.182;-1.946;2023-09-08T13:51:06;30.20;99.90
61400;DHT22;47269;48.182;-1.946;2023-09-08T13:53:32;30.60;99.90
61400;DHT22;47269;48.182;-1.946;2023-09-08T13:55:58;31.30;99.90
61400;DHT22;47269;48.182;-1.946;2023-09-08T13:58:24;31.30;99.90
61400;DHT22;47269;48.182;-1.946;2023-09-08T14:00:50;30.70;99.90
61400;DHT22;47269;48.182;-1.946;2023-09-08T14:03:17;29.20;99.90
61400;DHT22;47269;48.182;-1.946;2023-09-08T14:05:44;28.70;99.90
61400;DHT22;47269;48.182;-1.946;2023-09-08T14:08:10;28.90;99.90
61400;DHT22;47269;48.182;-1.946;2023-09-08T14:10:35;28.80;99.90
61400;DHT22;47269;48.182;-1.946;2023-09-08T14:13:01;29.70;99.90
61400;DHT22;47269;48.182;-1.946;2023-09-08T14:15:27;29.00;99.90
61400;DHT22;47269;48.182;-1.946;2023-09-08T14:17:52;29.80;99.90
61400;DHT22;47269;48.182;-1.946;2023-09-08T14:20:18;31.10;99.90
61400;DHT22;47269;48.182;-1.946;2023-09-08T14:22:44;30.90;99.90
61400;DHT22;47269;48.182;-1.946;2023-09-08T14:25:10;30.30;99.90
61400;DHT22;47269;48.182;-1.946;2023-09-08T14:27:36;29.60;99.90
61400;DHT22;47269;48.182;-1.946;2023-09-08T14:30:03;29.20;99.90
61400;DHT22;47269;48.182;-1.946;2023-09-08T14:32:31;28.20;99.90
61400;DHT22;47269;48.182;-1.946;2023-09-08T14:34:57;28.30;99.90
61400;DHT22;47269;48.182;-1.946;2023-09-08T14:37:23;28.80;99.90
61400;DHT22;47269;48.182;-1.946;2023-09-08T14:39:49;28.90;99.90
61400;DHT22;47269;48.182;-1.946;2023-09-08T14:42:14;28.20;99.90
61400;DHT22;47269;48.182;-1.946;2023-09-08T14:44:41;28.90;99.90
61400;DHT22;47269;48.182;-1.946;2023-09-08T14:47:07;29.60;99.90
61400;DHT22;47269;48.182;-1.946;2023-09-08T14:49:32;28.80;99.90
61400;DHT22;47269;48.182;-1.946;2023-09-08T14:51:58;29.00;99.90
61400;DHT22;47269;48.182;-1.946;2023-09-08T14:54:24;29.90;99.90
61400;DHT22;47269;48.182;-1.946;2023-09-08T14:56:51;30.90;99.90
61400;DHT22;47269;48.182;-1.946;2023-09-08T14:59:17;30.40;99.90
61400;DHT22;47269;48.182;-1.946;2023-09-08T15:01:42;28.80;99.90
61400;DHT22;47269;48.182;-1.946;2023-09-08T15:04:10;28.50;99.90
61400;DHT22;47269;48.182;-1.946;2023-09-08T15:06:36;29.20;99.90
61400;DHT22;47269;48.182;-1.946;2023-09-08T15:09:02;29.20;99.90
61400;DHT22;47269;48.182;-1.946;2023-09-08T15:11:28;29.50;99.90
61400;DHT22;47269;48.182;-1.946;2023-09-08T15:13:53;30.80;99.90
61400;DHT22;47269;48.182;-1.946;2023-09-08T15:16:19;30.30;99.90
61400;DHT22;47269;48.182;-1.946;2023-09-08T15:18:45;29.90;99.90
61400;DHT22;47269;48.182;-1.946;2023-09-08T15:21:10;29.10;99.90
61400;DHT22;47269;48.182;-1.946;2023-09-08T15:23:36;28.50;99.90
61400;DHT22;47269;48.182;-1.946;2023-09-08T15:26:02;29.30;99.90
61400;DHT22;47269;48.182;-1.946;2023-09-08T15:28:27;30.80;99.90
61400;DHT22;47269;48.182;-1.946;2023-09-08T15:30:54;31.20;99.90
61400;DHT22;47269;48.182;-1.946;2023-09-08T15:33:20;32.00;99.90
61400;DHT22;47269;48.182;-1.946;2023-09-08T15:35:47;30.90;99.90
61400;DHT22;47269;48.182;-1.946;2023-09-08T15:38:14;29.40;99.90
61400;DHT22;47269;48.182;-1.946;2023-09-08T15:43:33;29.00;99.90
61400;DHT22;47269;48.182;-1.946;2023-09-08T15:45:59;28.60;99.90
61400;DHT22;47269;48.182;-1.946;2023-09-08T15:48:25;29.90;99.90
61400;DHT22;47269;48.182;-1.946;2023-09-08T15:50:50;30.30;99.90
61400;DHT22;47269;48.182;-1.946;2023-09-08T15:53:16;29.20;99.90
61400;DHT22;47269;48.182;-1.946;2023-09-08T15:55:42;29.10;99.90
61400;DHT22;47269;48.182;-1.946;2023-09-08T15:58:07;28.60;99.90
61400;DHT22;47269;48.182;-1.946;2023-09-08T16:00:33;28.00;99.90
61400;DHT22;47269;48.182;-1.946;2023-09-08T16:02:59;28.50;99.90
61400;DHT22;47269;48.182;-1.946;2023-09-08T16:05:25;29.10;99.90
61400;DHT22;47269;48.182;-1.946;2023-09-08T16:07:50;29.10;99.90
61400;DHT22;47269;48.182;-1.946;2023-09-08T16:10:16;29.30;99.90
61400;DHT22;47269;48.182;-1.946;2023-09-08T16:12:42;29.60;99.90
61400;DHT22;47269;48.182;-1.946;2023-09-08T16:15:07;29.70;99.90
61400;DHT22;47269;48.182;-1.946;2023-09-08T16:17:33;29.50;99.90
61400;DHT22;47269;48.182;-1.946;2023-09-08T16:19:59;29.70;99.90
61400;DHT22;47269;48.182;-1.946;2023-09-08T16:22:25;29.30;99.90
61400;DHT22;47269;48.182;-1.946;2023-09-08T16:24:51;28.90;99.90
61400;DHT22;47269;48.182;-1.946;2023-09-08T16:27:16;28.50;99.90
61400;DHT22;47269;48.182;-1.946;2023-09-08T16:29:43;28.10;99.90
61400;DHT22;47269;48.182;-1.946;2023-09-08T16:32:10;28.30;1.00
61400;DHT22;47269;48.182;-1.946;2023-09-08T16:34:36;28.30;99.90
61400;DHT22;47269;48.182;-1.946;2023-09-08T16:37:02;29.10;99.90
61400;DHT22;47269;48.182;-1.946;2023-09-08T16:39:28;28.50;99.90
61400;DHT22;47269;48.182;-1.946;2023-09-08T16:41:54;28.00;1.00
61400;DHT22;47269;48.182;-1.946;2023-09-08T16:44:20;28.00;1.00
61400;DHT22;47269;48.182;-1.946;2023-09-08T16:46:45;28.40;1.00
61400;DHT22;47269;48.182;-1.946;2023-09-08T16:49:11;28.10;1.00
61400;DHT22;47269;48.182;-1.946;2023-09-08T16:51:36;27.90;1.00
61400;DHT22;47269;48.182;-1.946;2023-09-08T16:54:02;28.10;1.00
61400;DHT22;47269;48.182;-1.946;2023-09-08T16:56:28;28.20;1.00
61400;DHT22;47269;48.182;-1.946;2023-09-08T16:58:54;28.40;1.00
61400;DHT22;47269;48.182;-1.946;2023-09-08T17:01:20;28.70;1.00
61400;DHT22;47269;48.182;-1.946;2023-09-08T17:03:45;28.00;1.00
61400;DHT22;47269;48.182;-1.946;2023-09-08T17:06:11;28.00;1.00
61400;DHT22;47269;48.182;-1.946;2023-09-08T17:08:37;27.90;85.70
61400;DHT22;47269;48.182;-1.946;2023-09-08T17:11:06;27.50;99.90
61400;DHT22;47269;48.182;-1.946;2023-09-08T17:13:33;27.60;99.90
61400;DHT22;47269;48.182;-1.946;2023-09-08T17:16:00;28.00;99.90
61400;DHT22;47269;48.182;-1.946;2023-09-08T17:18:28;27.80;99.90
61400;DHT22;47269;48.182;-1.946;2023-09-08T17:20:57;27.50;1.00
61400;DHT22;47269;48.182;-1.946;2023-09-08T17:23:23;27.40;99.90
61400;DHT22;47269;48.182;-1.946;2023-09-08T17:25:50;27.60;99.90
61400;DHT22;47269;48.182;-1.946;2023-09-08T17:28:19;27.70;99.90
61400;DHT22;47269;48.182;-1.946;2023-09-08T17:30:46;27.60;99.90
61400;DHT22;47269;48.182;-1.946;2023-09-08T17:33:12;27.50;99.90
61400;DHT22;47269;48.182;-1.946;2023-09-08T17:35:38;27.60;99.90
61400;DHT22;47269;48.182;-1.946;2023-09-08T17:38:04;27.50;99.90
61400;DHT22;47269;48.182;-1.946;2023-09-08T17:40:33;27.20;1.00
61400;DHT22;47269;48.182;-1.946;2023-09-08T17:42:59;27.60;1.00
61400;DHT22;47269;48.182;-1.946;2023-09-08T17:45:24;27.50;1.00
61400;DHT22;47269;48.182;-1.946;2023-09-08T17:47:50;27.40;1.00
61400;DHT22;47269;48.182;-1.946;2023-09-08T17:50:16;27.50;1.00
61400;DHT22;47269;48.182;-1.946;2023-09-08T17:52:41;27.40;1.00
61400;DHT22;47269;48.182;-1.946;2023-09-08T17:55:07;27.20;1.00
61400;DHT22;47269;48.182;-1.946;2023-09-08T17:57:34;27.10;1.00
61400;DHT22;47269;48.182;-1.946;2023-09-08T18:02:49;27.00;18.60
61400;DHT22;47269;48.182;-1.946;2023-09-08T18:05:15;27.00;75.00
61400;DHT22;47269;48.182;-1.946;2023-09-08T18:07:41;27.00;99.90
61400;DHT22;47269;48.182;-1.946;2023-09-08T18:10:08;26.90;99.50
61400;DHT22;47269;48.182;-1.946;2023-09-08T18:12:34;26.80;99.90
61400;DHT22;47269;48.182;-1.946;2023-09-08T18:15:00;26.70;99.90
61400;DHT22;47269;48.182;-1.946;2023-09-08T18:17:26;26.60;99.90
61400;DHT22;47269;48.182;-1.946;2023-09-08T18:19:56;26.60;99.90
61400;DHT22;47269;48.182;-1.946;2023-09-08T18:22:22;26.40;99.90
61400;DHT22;47269;48.182;-1.946;2023-09-08T18:24:48;26.50;99.90
61400;DHT22;47269;48.182;-1.946;2023-09-08T18:27:13;26.40;99.90
61400;DHT22;47269;48.182;-1.946;2023-09-08T18:29:39;26.30;99.90
61400;DHT22;47269;48.182;-1.946;2023-09-08T18:32:05;26.40;99.90
61400;DHT22;47269;48.182;-1.946;2023-09-08T18:34:31;26.40;99.90
61400;DHT22;47269;48.182;-1.946;2023-09-08T18:36:56;26.20;99.90
61400;DHT22;47269;48.182;-1.946;2023-09-08T18:39:22;26.40;99.90
61400;DHT22;47269;48.182;-1.946;2023-09-08T18:41:47;26.30;99.90
61400;DHT22;47269;48.182;-1.946;2023-09-08T18:44:13;26.30;99.90
61400;DHT22;47269;48.182;-1.946;2023-09-08T18:46:39;26.20;99.90
61400;DHT22;47269;48.182;-1.946;2023-09-08T18:49:04;26.30;99.90
61400;DHT22;47269;48.182;-1.946;2023-09-08T18:51:30;26.20;99.90
61400;DHT22;47269;48.182;-1.946;2023-09-08T18:53:56;26.20;99.90
61400;DHT22;47269;48.182;-1.946;2023-09-08T18:56:21;26.20;99.90
61400;DHT22;47269;48.182;-1.946;2023-09-08T18:58:47;26.20;99.90
61400;DHT22;47269;48.182;-1.946;2023-09-08T19:01:13;26.20;99.90
61400;DHT22;47269;48.182;-1.946;2023-09-08T19:03:39;26.10;99.90
61400;DHT22;47269;48.182;-1.946;2023-09-08T19:06:08;26.10;99.90
61400;DHT22;47269;48.182;-1.946;2023-09-08T19:08:35;26.10;99.90
61400;DHT22;47269;48.182;-1.946;2023-09-08T19:11:01;26.00;99.90
61400;DHT22;47269;48.182;-1.946;2023-09-08T19:13:27;25.80;99.90
61400;DHT22;47269;48.182;-1.946;2023-09-08T19:15:53;25.80;99.90
61400;DHT22;47269;48.182;-1.946;2023-09-08T19:18:18;25.80;99.90
61400;DHT22;47269;48.182;-1.946;2023-09-08T19:20:44;25.70;99.90
61400;DHT22;47269;48.182;-1.946;2023-09-08T19:23:10;25.70;99.90
61400;DHT22;47269;48.182;-1.946;2023-09-08T19:25:37;25.70;99.90
61400;DHT22;47269;48.182;-1.946;2023-09-08T19:28:03;25.60;99.90
61400;DHT22;47269;48.182;-1.946;2023-09-08T19:30:29;25.60;99.90
61400;DHT22;47269;48.182;-1.946;2023-09-08T19:32:55;25.60;99.90
61400;DHT22;47269;48.182;-1.946;2023-09-08T19:35:21;25.50;99.90
61400;DHT22;47269;48.182;-1.946;2023-09-08T19:37:47;25.60;99.90
61400;DHT22;47269;48.182;-1.946;2023-09-08T19:40:12;25.50;99.90
61400;DHT22;47269;48.182;-1.946;2023-09-08T19:42:38;25.40;99.90
61400;DHT22;47269;48.182;-1.946;2023-09-08T19:45:04;25.40;99.90
61400;DHT22;47269;48.182;-1.946;2023-09-08T19:47:30;25.40;99.90
61400;DHT22;47269;48.182;-1.946;2023-09-08T19:49:56;25.30;99.90
61400;DHT22;47269;48.182;-1.946;2023-09-08T19:52:21;25.30;99.90
61400;DHT22;47269;48.182;-1.946;2023-09-08T19:54:47;25.10;99.90
61400;DHT22;47269;48.182;-1.946;2023-09-08T19:57:13;25.20;99.90
61400;DHT22;47269;48.182;-1.946;2023-09-08T19:59:38;25.20;99.90
61400;DHT22;47269;48.182;-1.946;2023-09-08T20:02:08;25.30;99.90
61400;DHT22;47269;48.182;-1.946;2023-09-08T20:04:34;25.00;99.90
61400;DHT22;47269;48.182;-1.946;2023-09-08T20:07:00;24.90;99.90
61400;DHT22;47269;48.182;-1.946;2023-09-08T20:09:26;24.90;99.90
61400;DHT22;47269;48.182;-1.946;2023-09-08T20:11:52;24.80;99.90
61400;DHT22;47269;48.182;-1.946;2023-09-08T20:14:18;24.80;99.90
61400;DHT22;47269;48.182;-1.946;2023-09-08T20:16:44;24.80;99.90
61400;DHT22;47269;48.182;-1.946;2023-09-08T20:19:09;24.70;99.90
61400;DHT22;47269;48.182;-1.946;2023-09-08T20:21:36;24.70;99.90
61400;DHT22;47269;48.182;-1.946;2023-09-08T20:24:01;24.60;99.90
61400;DHT22;47269;48.182;-1.946;2023-09-08T20:26:30;24.50;99.90
61400;DHT22;47269;48.182;-1.946;2023-09-08T20:28:55;24.70;99.90
61400;DHT22;47269;48.182;-1.946;2023-09-08T20:31:21;24.80;99.90
61400;DHT22;47269;48.182;-1.946;2023-09-08T20:33:47;24.30;99.90
61400;DHT22;47269;48.182;-1.946;2023-09-08T20:36:13;24.10;99.90
61400;DHT22;47269;48.182;-1.946;2023-09-08T20:38:39;24.20;99.90
61400;DHT22;47269;48.182;-1.946;2023-09-08T20:41:08;24.20;99.90
61400;DHT22;47269;48.182;-1.946;2023-09-08T20:43:34;24.20;99.90
61400;DHT22;47269;48.182;-1.946;2023-09-08T20:46:01;24.20;99.90
61400;DHT22;47269;48.182;-1.946;2023-09-08T20:48:32;24.30;99.90
61400;DHT22;47269;48.182;-1.946;2023-09-08T20:51:09;24.20;99.90
61400;DHT22;47269;48.182;-1.946;2023-09-08T20:53:37;24.20;99.90
61400;DHT22;47269;48.182;-1.946;2023-09-08T20:56:03;24.00;99.90
61400;DHT22;47269;48.182;-1.946;2023-09-08T20:58:32;24.00;99.90
61400;DHT22;47269;48.182;-1.946;2023-09-08T21:00:59;24.20;99.90
61400;DHT22;47269;48.182;-1.946;2023-09-08T21:03:27;24.00;99.90
61400;DHT22;47269;48.182;-1.946;2023-09-08T21:05:53;23.90;99.90
61400;DHT22;47269;48.182;-1.946;2023-09-08T21:08:19;23.90;99.90
61400;DHT22;47269;48.182;-1.946;2023-09-08T21:10:46;23.90;99.90
61400;DHT22;47269;48.182;-1.946;2023-09-08T21:13:12;23.70;99.90
61400;DHT22;47269;48.182;-1.946;2023-09-08T21:15:38;23.50;99.90
61400;DHT22;47269;48.182;-1.946;2023-09-08T21:18:05;23.40;99.90
61400;DHT22;47269;48.182;-1.946;2023-09-08T21:20:32;23.20;99.90
61400;DHT22;47269;48.182;-1.946;2023-09-08T21:22:57;23.20;99.90
61400;DHT22;47269;48.182;-1.946;2023-09-08T21:25:27;23.10;99.90